sensor_id;sensor_type;location;lat;lon;timestamp;temperature;humidity
33955;DHT22;20233;50.804;7.126;2023-02-08T00:01:09;-0.20;99.90
33955;DHT22;20233;50.804;7.126;2023-02-08T00:03:34;-0.30;99.90
33955;DHT22;20233;50.804;7.126;2023-02-08T00:06:01;-0.30;99.90
33955;DHT22;20233;50.804;7.126;2023-02-08T00:08:26;-0.20;99.90
33955;DHT22;20233;50.804;7.126;2023-02-08T00:10:52;-0.20;99.90
33955;DHT22;20233;50.804;7.126;2023-02-08T00:13:18;-0.30;99.90
33955;DHT22;20233;50.804;7.126;2023-02-08T00:15:44;-0.40;99.90
33955;DHT22;20233;50.804;7.126;2023-02-08T00:18:10;-0.50;99.90
33955;DHT22;20233;50.804;7.126;2023-02-08T00:20:40;-0.50;99.90
33955;DHT22;20233;50.804;7.126;2023-02-08T00:23:06;-0.40;99.90
33955;DHT22;20233;50.804;7.126;2023-02-08T00:25:32;-0.40;99.90
33955;DHT22;20233;50.804;7.126;2023-02-08T00:27:58;-0.40;99.90
33955;DHT22;20233;50.804;7.126;2023-02-08T00:30:24;-0.50;99.90
33955;DHT22;20233;50.804;7.126;2023-02-08T00:32:49;-0.50;99.90
33955;DHT22;20233;50.804;7.126;2023-02-08T00:35:15;-0.50;99.90
33955;DHT22;20233;50.804;7.126;2023-02-08T00:37:41;-0.50;99.90
33955;DHT22;20233;50.804;7.126;2023-02-08T00:40:07;-0.40;99.90
33955;DHT22;20233;50.804;7.126;2023-02-08T00:42:32;-0.40;99.90
33955;DHT22;20233;50.804;7.126;2023-02-08T00:44:58;-0.40;99.90
33955;DHT22;20233;50.804;7.126;2023-02-08T00:47:24;-0.50;99.90
33955;DHT22;20233;50.804;7.126;2023-02-08T00:49:50;-0.60;99.90
33955;DHT22;20233;50.804;7.126;2023-02-08T00:52:16;-0.60;99.90
33955;DHT22;20233;50.804;7.126;2023-02-08T00:54:41;-0.60;99.90
33955;DHT22;20233;50.804;7.126;2023-02-08T00:57:08;-0.70;99.90
33955;DHT22;20233;50.804;7.126;2023-02-08T00:59:33;-0.70;99.90
33955;DHT22;20233;50.804;7.126;2023-02-08T01:01:59;-0.60;99.90
33955;DHT22;20233;50.804;7.126;2023-02-08T01:04:25;-0.60;99.90
33955;DHT22;20233;50.804;7.126;2023-02-08T01:06:50;-0.60;99.90
33955;DHT22;20233;50.804;7.126;2023-02-08T01:09:16;-0.70;99.90
33955;DHT22;20233;50.804;7.126;2023-02-08T01:11:41;-0.70;99.90
33955;DHT22;20233;50.804;7.126;2023-02-08T01:14:07;-0.70;99.90
33955;DHT22;20233;50.804;7.126;2023-02-08T01:16:33;-0.70;99.90
33955;DHT22;20233;50.804;7.126;2023-02-08T01:19:01;-0.70;99.90
33955;DHT22;20233;50.804;7.126;2023-02-08T01:21:29;-0.80;99.90
33955;DHT22;20233;50.804;7.126;2023-02-08T01:23:56;-0.90;99.90
33955;DHT22;20233;50.804;7.126;2023-02-08T01:26:23;-0.90;99.90
33955;DHT22;20233;50.804;7.126;2023-02-08T01:28:49;-0.90;99.90
33955;DHT22;20233;50.804;7.126;2023-02-08T01:31:18;-0.90;99.90
33955;DHT22;20233;50.804;7.126;2023-02-08T01:33:44;-0.90;99.90
33955;DHT22;20233;50.804;7.126;2023-02-08T01:36:10;-0.90;99.90
33955;DHT22;20233;50.804;7.126;2023-02-08T01:38:36;-1.00;99.90
33955;DHT22;20233;50.804;7.126;2023-02-08T01:41:05;-0.90;99.90
33955;DHT22;20233;50.804;7.126;2023-02-08T01:43:33;-0.90;99.90
33955;DHT22;20233;50.804;7.126;2023-02-08T01:45:59;-0.90;99.90
33955;DHT22;20233;50.804;7.126;2023-02-08T01:48:31;-0.90;99.90
33955;DHT22;20233;50.804;7.126;2023-02-08T01:51:09;-0.90;99.90
33955;DHT22;20233;50.804;7.126;2023-02-08T01:53:35;-0.90;99.90
33955;DHT22;20233;50.804;7.126;2023-02-08T01:56:05;-0.90;99.90
33955;DHT22;20233;50.804;7.126;2023-02-08T01:58:35;-0.90;99.90
33955;DHT22;20233;50.804;7.126;2023-02-08T02:01:02;-0.90;99.90
33955;DHT22;20233;50.804;7.126;2023-02-08T02:03:28;-0.80;99.90
33955;DHT22;20233;50.804;7.126;2023-02-08T02:06:00;-0.80;99.90
33955;DHT22;20233;50.804;7.126;2023-02-08T02:08:26;-0.80;99.90
33955;DHT22;20233;50.804;7.126;2023-02-08T02:10:51;-0.90;99.90
33955;DHT22;20233;50.804;7.126;2023-02-08T02:13:22;-0.90;99.90
33955;DHT22;20233;50.804;7.126;2023-02-08T02:15:49;-0.80;99.90
33955;DHT22;20233;50.804;7.126;2023-02-08T02:18:28;-0.80;99.90
33955;DHT22;20233;50.804;7.126;2023-02-08T02:21:18;-0.80;99.90
33955;DHT22;20233;50.804;7.126;2023-02-08T02:26:45;-0.70;99.90
33955;DHT22;20233;50.804;7.126;2023-02-08T02:34:44;-0.70;99.90
33955;DHT22;20233;50.804;7.126;2023-02-08T02:37:14;-0.70;99.90
33955;DHT22;20233;50.804;7.126;2023-02-08T02:39:58;-0.70;99.90
33955;DHT22;20233;50.804;7.126;2023-02-08T02:42:41;-0.70;99.90
33955;DHT22;20233;50.804;7.126;2023-02-08T02:45:35;-0.70;99.90
33955;DHT22;20233;50.804;7.126;2023-02-08T02:48:30;-0.70;99.90
33955;DHT22;20233;50.804;7.126;2023-02-08T02:56:28;-0.60;99.90
33955;DHT22;20233;50.804;7.126;2023-02-08T02:58:57;-0.70;99.90
33955;DHT22;20233;50.804;7.126;2023-02-08T03:01:24;-0.60;99.90
33955;DHT22;20233;50.804;7.126;2023-02-08T03:03:51;-0.70;99.90
33955;DHT22;20233;50.804;7.126;2023-02-08T03:09:07;-0.60;99.90
33955;DHT22;20233;50.804;7.126;2023-02-08T03:11:40;-0.60;99.90
33955;DHT22;20233;50.804;7.126;2023-02-08T03:14:29;-0.60;99.90
33955;DHT22;20233;50.804;7.126;2023-02-08T03:17:18;-0.60;99.90
33955;DHT22;20233;50.804;7.126;2023-02-08T03:22:39;-0.60;99.90
33955;DHT22;20233;50.804;7.126;2023-02-08T03:27:58;-0.70;99.90
33955;DHT22;20233;50.804;7.126;2023-02-08T03:30:33;-0.70;99.90
33955;DHT22;20233;50.804;7.126;2023-02-08T03:33:13;-0.70;99.90
33955;DHT22;20233;50.804;7.126;2023-02-08T03:35:57;-0.80;99.90
33955;DHT22;20233;50.804;7.126;2023-02-08T03:38:42;-0.80;99.90
33955;DHT22;20233;50.804;7.126;2023-02-08T03:41:12;-0.70;99.90
33955;DHT22;20233;50.804;7.126;2023-02-08T03:43:43;-0.70;99.90
33955;DHT22;20233;50.804;7.126;2023-02-08T03:46:15;-0.70;99.90
33955;DHT22;20233;50.804;7.126;2023-02-08T03:48:45;-0.70;99.90
33955;DHT22;20233;50.804;7.126;2023-02-08T03:51:14;-0.70;99.90
33955;DHT22;20233;50.804;7.126;2023-02-08T03:53:43;-0.70;99.90
33955;DHT22;20233;50.804;7.126;2023-02-08T03:56:13;-0.80;99.90
33955;DHT22;20233;50.804;7.126;2023-02-08T03:58:50;-0.80;99.90
33955;DHT22;20233;50.804;7.126;2023-02-08T04:01:24;-0.80;99.90
33955;DHT22;20233;50.804;7.126;2023-02-08T04:03:52;-0.80;99.90
33955;DHT22;20233;50.804;7.126;2023-02-08T04:06:18;-0.80;99.90
33955;DHT22;20233;50.804;7.126;2023-02-08T04:08:44;-0.90;99.90
33955;DHT22;20233;50.804;7.126;2023-02-08T04:11:10;-0.90;99.90
33955;DHT22;20233;50.804;7.126;2023-02-08T04:13:35;-1.00;99.90
33955;DHT22;20233;50.804;7.126;2023-02-08T04:16:01;-1.00;99.90
33955;DHT22;20233;50.804;7.126;2023-02-08T04:18:26;-1.00;99.90
33955;DHT22;20233;50.804;7.126;2023-02-08T04:20:52;-1.00;99.90
33955;DHT22;20233;50.804;7.126;2023-02-08T04:23:17;-1.10;99.90
33955;DHT22;20233;50.804;7.126;2023-02-08T04:25:43;-1.10;99.90
33955;DHT22;20233;50.804;7.126;2023-02-08T04:28:08;-1.10;99.90
33955;DHT22;20233;50.804;7.126;2023-02-08T04:30:34;-1.10;99.90
33955;DHT22;20233;50.804;7.126;2023-02-08T04:32:59;-1.10;99.90
33955;DHT22;20233;50.804;7.126;2023-02-08T04:35:25;-1.10;99.90
33955;DHT22;20233;50.804;7.126;2023-02-08T04:37:50;-1.20;99.90
33955;DHT22;20233;50.804;7.126;2023-02-08T04:40:16;-1.20;99.90
33955;DHT22;20233;50.804;7.126;2023-02-08T04:42:43;-1.20;99.90
33955;DHT22;20233;50.804;7.126;2023-02-08T04:45:08;-1.20;99.90
33955;DHT22;20233;50.804;7.126;2023-02-08T04:47:34;-1.30;99.90
33955;DHT22;20233;50.804;7.126;2023-02-08T04:49:59;-1.30;99.90
33955;DHT22;20233;50.804;7.126;2023-02-08T04:52:25;-1.30;99.90
33955;DHT22;20233;50.804;7.126;2023-02-08T04:54:50;-1.30;99.90
33955;DHT22;20233;50.804;7.126;2023-02-08T04:57:16;-1.40;99.90
33955;DHT22;20233;50.804;7.126;2023-02-08T04:59:41;-1.40;99.90
33955;DHT22;20233;50.804;7.126;2023-02-08T05:02:07;-1.40;99.90
33955;DHT22;20233;50.804;7.126;2023-02-08T05:04:33;-1.40;99.90
33955;DHT22;20233;50.804;7.126;2023-02-08T05:06:58;-1.40;99.90
33955;DHT22;20233;50.804;7.126;2023-02-08T05:09:24;-1.40;99.90
33955;DHT22;20233;50.804;7.126;2023-02-08T05:11:49;-1.40;99.90
33955;DHT22;20233;50.804;7.126;2023-02-08T05:14:15;-1.50;99.90
33955;DHT22;20233;50.804;7.126;2023-02-08T05:16:40;-1.40;99.90
33955;DHT22;20233;50.804;7.126;2023-02-08T05:19:06;-1.50;99.90
33955;DHT22;20233;50.804;7.126;2023-02-08T05:21:31;-1.50;99.90
33955;DHT22;20233;50.804;7.126;2023-02-08T05:23:57;-1.50;99.90
33955;DHT22;20233;50.804;7.126;2023-02-08T05:26:23;-1.50;99.90
33955;DHT22;20233;50.804;7.126;2023-02-08T05:28:48;-1.50;99.90
33955;DHT22;20233;50.804;7.126;2023-02-08T05:31:17;-1.50;99.90
33955;DHT22;20233;50.804;7.126;2023-02-08T05:33:43;-1.50;99.90
33955;DHT22;20233;50.804;7.126;2023-02-08T05:36:09;-1.50;99.90
33955;DHT22;20233;50.804;7.126;2023-02-08T05:38:35;-1.60;99.90
33955;DHT22;20233;50.804;7.126;2023-02-08T05:41:00;-1.60;99.90
33955;DHT22;20233;50.804;7.126;2023-02-08T05:43:26;-1.60;99.90
33955;DHT22;20233;50.804;7.126;2023-02-08T05:45:52;-1.50;99.90
33955;DHT22;20233;50.804;7.126;2023-02-08T05:48:17;-1.50;99.90
33955;DHT22;20233;50.804;7.126;2023-02-08T05:50:43;-1.50;99.90
33955;DHT22;20233;50.804;7.126;2023-02-08T05:53:09;-1.50;99.90
33955;DHT22;20233;50.804;7.126;2023-02-08T05:55:34;-1.50;99.90
33955;DHT22;20233;50.804;7.126;2023-02-08T05:58:00;-1.50;99.90
33955;DHT22;20233;50.804;7.126;2023-02-08T06:00:25;-1.60;99.90
33955;DHT22;20233;50.804;7.126;2023-02-08T06:02:51;-1.60;99.90
33955;DHT22;20233;50.804;7.126;2023-02-08T06:05:17;-1.70;99.90
33955;DHT22;20233;50.804;7.126;2023-02-08T06:07:43;-1.70;99.90
33955;DHT22;20233;50.804;7.126;2023-02-08T06:10:10;-1.70;99.90
33955;DHT22;20233;50.804;7.126;2023-02-08T06:12:36;-1.60;99.90
33955;DHT22;20233;50.804;7.126;2023-02-08T06:15:02;-1.60;99.90
33955;DHT22;20233;50.804;7.126;2023-02-08T06:17:29;-1.60;99.90
33955;DHT22;20233;50.804;7.126;2023-02-08T06:19:55;-1.60;99.90
33955;DHT22;20233;50.804;7.126;2023-02-08T06:22:23;-1.60;99.90
33955;DHT22;20233;50.804;7.126;2023-02-08T06:24:52;-1.60;99.90
33955;DHT22;20233;50.804;7.126;2023-02-08T06:27:18;-1.70;99.90
33955;DHT22;20233;50.804;7.126;2023-02-08T06:29:46;-1.70;99.90
33955;DHT22;20233;50.804;7.126;2023-02-08T06:32:13;-1.60;99.90
33955;DHT22;20233;50.804;7.126;2023-02-08T06:34:41;-1.60;99.90
33955;DHT22;20233;50.804;7.126;2023-02-08T06:37:08;-1.70;99.90
33955;DHT22;20233;50.804;7.126;2023-02-08T06:39:35;-1.70;99.90
33955;DHT22;20233;50.804;7.126;2023-02-08T06:42:01;-1.70;99.90
33955;DHT22;20233;50.804;7.126;2023-02-08T06:44:28;-1.70;99.90
33955;DHT22;20233;50.804;7.126;2023-02-08T06:46:54;-1.70;99.90
33955;DHT22;20233;50.804;7.126;2023-02-08T06:49:22;-1.80;99.90
33955;DHT22;20233;50.804;7.126;2023-02-08T06:51:50;-1.80;99.90
33955;DHT22;20233;50.804;7.126;2023-02-08T06:54:16;-1.70;99.90
33955;DHT22;20233;50.804;7.126;2023-02-08T06:56:42;-1.70;99.90
33955;DHT22;20233;50.804;7.126;2023-02-08T06:59:09;-1.60;99.90
33955;DHT22;20233;50.804;7.126;2023-02-08T07:01:35;-1.70;99.90
33955;DHT22;20233;50.804;7.126;2023-02-08T07:04:02;-1.70;99.90
33955;DHT22;20233;50.804;7.126;2023-02-08T07:06:28;-1.60;99.90
33955;DHT22;20233;50.804;7.126;2023-02-08T07:08:54;-1.60;99.90
33955;DHT22;20233;50.804;7.126;2023-02-08T07:11:21;-1.60;99.90
33955;DHT22;20233;50.804;7.126;2023-02-08T07:13:54;-1.60;99.90
33955;DHT22;20233;50.804;7.126;2023-02-08T07:16:22;-1.60;99.90
33955;DHT22;20233;50.804;7.126;2023-02-08T07:18:49;-1.60;99.90
33955;DHT22;20233;50.804;7.126;2023-02-08T07:21:15;-1.50;99.90
33955;DHT22;20233;50.804;7.126;2023-02-08T07:23:40;-1.50;99.90
33955;DHT22;20233;50.804;7.126;2023-02-08T07:26:10;-1.50;99.90
33955;DHT22;20233;50.804;7.126;2023-02-08T07:28:37;-1.50;99.90
33955;DHT22;20233;50.804;7.126;2023-02-08T07:31:08;-1.40;99.90
33955;DHT22;20233;50.804;7.126;2023-02-08T07:33:35;-1.40;99.90
33955;DHT22;20233;50.804;7.126;2023-02-08T07:36:01;-1.40;99.90
33955;DHT22;20233;50.804;7.126;2023-02-08T07:38:30;-1.30;99.90
33955;DHT22;20233;50.804;7.126;2023-02-08T07:41:08;-1.30;99.90
33955;DHT22;20233;50.804;7.126;2023-02-08T07:43:37;-1.20;99.90
33955;DHT22;20233;50.804;7.126;2023-02-08T07:46:13;-1.20;99.90
33955;DHT22;20233;50.804;7.126;2023-02-08T07:48:40;-1.20;99.90
33955;DHT22;20233;50.804;7.126;2023-02-08T07:51:07;-1.20;99.90
33955;DHT22;20233;50.804;7.126;2023-02-08T07:53:35;-1.10;99.90
33955;DHT22;20233;50.804;7.126;2023-02-08T07:56:04;-1.10;99.90
33955;DHT22;20233;50.804;7.126;2023-02-08T07:58:35;-1.10;99.90
33955;DHT22;20233;50.804;7.126;2023-02-08T08:01:02;-1.10;99.90
33955;DHT22;20233;50.804;7.126;2023-02-08T08:03:29;-1.10;99.90
33955;DHT22;20233;50.804;7.126;2023-02-08T08:05:55;-1.00;99.90
33955;DHT22;20233;50.804;7.126;2023-02-08T08:08:21;-1.00;99.90
33955;DHT22;20233;50.804;7.126;2023-02-08T08:10:51;-0.90;99.90
33955;DHT22;20233;50.804;7.126;2023-02-08T08:13:19;-0.90;99.90
33955;DHT22;20233;50.804;7.126;2023-02-08T08:15:46;-0.80;99.90
33955;DHT22;20233;50.804;7.126;2023-02-08T08:18:12;-0.80;99.90
33955;DHT22;20233;50.804;7.126;2023-02-08T08:20:39;-0.80;99.90
33955;DHT22;20233;50.804;7.126;2023-02-08T08:23:07;-0.70;99.90
33955;DHT22;20233;50.804;7.126;2023-02-08T08:25:33;-0.70;99.90
33955;DHT22;20233;50.804;7.126;2023-02-08T08:28:01;-0.60;99.90
33955;DHT22;20233;50.804;7.126;2023-02-08T08:30:27;-0.60;99.90
33955;DHT22;20233;50.804;7.126;2023-02-08T08:32:54;-0.50;99.90
33955;DHT22;20233;50.804;7.126;2023-02-08T08:35:22;-0.50;99.90
33955;DHT22;20233;50.804;7.126;2023-02-08T08:37:53;-0.50;99.90
33955;DHT22;20233;50.804;7.126;2023-02-08T08:40:20;-0.40;99.90
33955;DHT22;20233;50.804;7.126;2023-02-08T08:42:47;-0.30;99.90
33955;DHT22;20233;50.804;7.126;2023-02-08T08:45:14;-0.20;99.90
33955;DHT22;20233;50.804;7.126;2023-02-08T08:47:41;-0.20;99.90
33955;DHT22;20233;50.804;7.126;2023-02-08T08:50:08;-0.10;99.90
33955;DHT22;20233;50.804;7.126;2023-02-08T08:52:35;-0.10;99.90
33955;DHT22;20233;50.804;7.126;2023-02-08T08:55:01;0.10;99.90
33955;DHT22;20233;50.804;7.126;2023-02-08T08:57:28;0.10;99.90
33955;DHT22;20233;50.804;7.126;2023-02-08T08:59:54;0.10;99.90
33955;DHT22;20233;50.804;7.126;2023-02-08T09:02:21;0.20;99.90
33955;DHT22;20233;50.804;7.126;2023-02-08T09:04:48;0.20;99.90
33955;DHT22;20233;50.804;7.126;2023-02-08T09:07:15;0.30;99.90
33955;DHT22;20233;50.804;7.126;2023-02-08T09:09:42;0.30;99.90
33955;DHT22;20233;50.804;7.126;2023-02-08T09:12:14;0.40;99.90
33955;DHT22;20233;50.804;7.126;2023-02-08T09:14:43;0.50;99.90
33955;DHT22;20233;50.804;7.126;2023-02-08T09:17:13;0.50;99.90
33955;DHT22;20233;50.804;7.126;2023-02-08T09:19:41;0.60;99.90
33955;DHT22;20233;50.804;7.126;2023-02-08T09:22:09;0.70;99.90
33955;DHT22;20233;50.804;7.126;2023-02-08T09:24:35;0.70;99.90
33955;DHT22;20233;50.804;7.126;2023-02-08T09:27:02;0.80;99.90
33955;DHT22;20233;50.804;7.126;2023-02-08T09:29:29;0.80;99.90
33955;DHT22;20233;50.804;7.126;2023-02-08T09:31:58;0.90;99.90
33955;DHT22;20233;50.804;7.126;2023-02-08T09:34:24;1.00;99.90
33955;DHT22;20233;50.804;7.126;2023-02-08T09:36:51;1.00;99.90
33955;DHT22;20233;50.804;7.126;2023-02-08T09:39:23;1.10;99.90
33955;DHT22;20233;50.804;7.126;2023-02-08T09:50:43;1.50;99.90
33955;DHT22;20233;50.804;7.126;2023-02-08T09:53:31;1.60;99.90
33955;DHT22;20233;50.804;7.126;2023-02-08T09:56:03;1.70;99.90
33955;DHT22;20233;50.804;7.126;2023-02-08T09:58:43;1.70;99.90
33955;DHT22;20233;50.804;7.126;2023-02-08T10:01:30;1.90;99.90
33955;DHT22;20233;50.804;7.126;2023-02-08T10:04:08;2.00;99.90
33955;DHT22;20233;50.804;7.126;2023-02-08T10:06:37;2.00;99.90
33955;DHT22;20233;50.804;7.126;2023-02-08T10:09:08;2.10;99.90
33955;DHT22;20233;50.804;7.126;2023-02-08T10:18:10;2.50;99.90
33955;DHT22;20233;50.804;7.126;2023-02-08T10:20:39;2.60;99.90
33955;DHT22;20233;50.804;7.126;2023-02-08T10:23:46;2.70;99.90
33955;DHT22;20233;50.804;7.126;2023-02-08T10:26:36;2.70;99.90
33955;DHT22;20233;50.804;7.126;2023-02-08T10:37:17;3.30;99.90
33955;DHT22;20233;50.804;7.126;2023-02-08T10:39:45;3.40;99.90
33955;DHT22;20233;50.804;7.126;2023-02-08T10:42:20;3.50;99.90
33955;DHT22;20233;50.804;7.126;2023-02-08T10:47:21;3.70;99.90
33955;DHT22;20233;50.804;7.126;2023-02-08T10:50:24;3.80;99.90
33955;DHT22;20233;50.804;7.126;2023-02-08T10:52:52;3.90;99.90
33955;DHT22;20233;50.804;7.126;2023-02-08T10:55:20;4.00;99.90
33955;DHT22;20233;50.804;7.126;2023-02-08T10:57:48;4.00;99.90
33955;DHT22;20233;50.804;7.126;2023-02-08T11:00:19;4.20;99.90
33955;DHT22;20233;50.804;7.126;2023-02-08T11:02:46;4.30;99.90
33955;DHT22;20233;50.804;7.126;2023-02-08T11:05:19;4.40;99.90
33955;DHT22;20233;50.804;7.126;2023-02-08T11:08:22;4.60;99.90
33955;DHT22;20233;50.804;7.126;2023-02-08T11:11:06;4.60;99.90
33955;DHT22;20233;50.804;7.126;2023-02-08T11:13:46;4.70;99.90
33955;DHT22;20233;50.804;7.126;2023-02-08T11:16:24;4.80;99.90
33955;DHT22;20233;50.804;7.126;2023-02-08T11:19:00;4.90;99.90
33955;DHT22;20233;50.804;7.126;2023-02-08T11:21:38;5.00;99.90
33955;DHT22;20233;50.804;7.126;2023-02-08T11:24:34;5.10;99.90
33955;DHT22;20233;50.804;7.126;2023-02-08T11:32:45;5.40;99.90
33955;DHT22;20233;50.804;7.126;2023-02-08T11:35:21;5.50;99.90
33955;DHT22;20233;50.804;7.126;2023-02-08T11:37:56;5.60;99.90
33955;DHT22;20233;50.804;7.126;2023-02-08T11:42:56;5.80;99.90
33955;DHT22;20233;50.804;7.126;2023-02-08T11:45:31;5.90;99.90
33955;DHT22;20233;50.804;7.126;2023-02-08T11:48:00;5.90;99.90
33955;DHT22;20233;50.804;7.126;2023-02-08T11:50:29;6.10;99.90
33955;DHT22;20233;50.804;7.126;2023-02-08T11:56:48;6.30;99.90
33955;DHT22;20233;50.804;7.126;2023-02-08T11:59:21;6.30;99.90
33955;DHT22;20233;50.804;7.126;2023-02-08T12:01:49;6.30;99.90
33955;DHT22;20233;50.804;7.126;2023-02-08T12:04:17;6.30;99.90
33955;DHT22;20233;50.804;7.126;2023-02-08T12:12:18;6.50;99.90
33955;DHT22;20233;50.804;7.126;2023-02-08T12:17:59;6.70;99.90
33955;DHT22;20233;50.804;7.126;2023-02-08T12:20:37;6.70;99.90
33955;DHT22;20233;50.804;7.126;2023-02-08T12:32:14;6.90;99.90
33955;DHT22;20233;50.804;7.126;2023-02-08T12:40:33;7.00;99.90
33955;DHT22;20233;50.804;7.126;2023-02-08T12:43:29;7.10;99.90
33955;DHT22;20233;50.804;7.126;2023-02-08T12:55:23;7.30;99.90
33955;DHT22;20233;50.804;7.126;2023-02-08T12:57:56;7.20;99.90
33955;DHT22;20233;50.804;7.126;2023-02-08T13:00:30;7.20;99.90
33955;DHT22;20233;50.804;7.126;2023-02-08T13:05:52;7.40;99.90
33955;DHT22;20233;50.804;7.126;2023-02-08T13:11:12;7.50;99.90
33955;DHT22;20233;50.804;7.126;2023-02-08T13:13:41;7.50;99.90
33955;DHT22;20233;50.804;7.126;2023-02-08T13:16:23;7.60;99.90
33955;DHT22;20233;50.804;7.126;2023-02-08T13:18:52;7.70;99.90
33955;DHT22;20233;50.804;7.126;2023-02-08T13:21:28;7.70;99.90
33955;DHT22;20233;50.804;7.126;2023-02-08T13:23:56;7.70;99.90
33955;DHT22;20233;50.804;7.126;2023-02-08T13:26:27;7.80;99.90
33955;DHT22;20233;50.804;7.126;2023-02-08T13:28:59;7.80;99.90
33955;DHT22;20233;50.804;7.126;2023-02-08T13:31:38;7.80;99.90
33955;DHT22;20233;50.804;7.126;2023-02-08T13:37:01;8.00;99.90
33955;DHT22;20233;50.804;7.126;2023-02-08T13:39:36;8.10;99.90
33955;DHT22;20233;50.804;7.126;2023-02-08T13:42:06;8.20;99.90
33955;DHT22;20233;50.804;7.126;2023-02-08T13:44:36;8.20;99.90
33955;DHT22;20233;50.804;7.126;2023-02-08T13:47:05;8.30;99.90
33955;DHT22;20233;50.804;7.126;2023-02-08T13:49:51;8.30;99.90
33955;DHT22;20233;50.804;7.126;2023-02-08T13:58:07;8.40;99.90
33955;DHT22;20233;50.804;7.126;2023-02-08T14:03:25;8.40;99.90
33955;DHT22;20233;50.804;7.126;2023-02-08T14:13:51;8.30;99.90
33955;DHT22;20233;50.804;7.126;2023-02-08T14:16:38;8.20;99.90
33955;DHT22;20233;50.804;7.126;2023-02-08T14:19:21;8.20;99.90
33955;DHT22;20233;50.804;7.126;2023-02-08T14:22:05;8.00;99.80
33955;DHT22;20233;50.804;7.126;2023-02-08T14:27:36;8.00;98.40
33955;DHT22;20233;50.804;7.126;2023-02-08T14:30:28;7.80;98.60
33955;DHT22;20233;50.804;7.126;2023-02-08T14:35:50;7.90;97.60
33955;DHT22;20233;50.804;7.126;2023-02-08T14:45:54;7.90;98.90
33955;DHT22;20233;50.804;7.126;2023-02-08T14:53:53;7.90;98.20
33955;DHT22;20233;50.804;7.126;2023-02-08T14:57:17;7.80;98.70
33955;DHT22;20233;50.804;7.126;2023-02-08T14:59:33;7.80;99.50
33955;DHT22;20233;50.804;7.126;2023-02-08T15:02:02;7.70;98.60
33955;DHT22;20233;50.804;7.126;2023-02-08T15:04:42;7.60;97.70
33955;DHT22;20233;50.804;7.126;2023-02-08T15:07:29;7.60;97.50
33955;DHT22;20233;50.804;7.126;2023-02-08T15:10:09;7.50;98.10
33955;DHT22;20233;50.804;7.126;2023-02-08T15:12:41;7.50;98.10
33955;DHT22;20233;50.804;7.126;2023-02-08T15:15:38;7.40;97.90
33955;DHT22;20233;50.804;7.126;2023-02-08T15:18:16;7.40;97.50
33955;DHT22;20233;50.804;7.126;2023-02-08T15:20:44;7.30;98.30
33955;DHT22;20233;50.804;7.126;2023-02-08T15:23:23;7.40;99.10
33955;DHT22;20233;50.804;7.126;2023-02-08T15:26:19;7.20;98.20
33955;DHT22;20233;50.804;7.126;2023-02-08T15:28:47;7.30;98.00
33955;DHT22;20233;50.804;7.126;2023-02-08T15:31:17;7.20;97.90
33955;DHT22;20233;50.804;7.126;2023-02-08T15:33:45;7.20;98.60
33955;DHT22;20233;50.804;7.126;2023-02-08T15:36:33;7.20;98.70
33955;DHT22;20233;50.804;7.126;2023-02-08T15:39:10;7.10;98.20
33955;DHT22;20233;50.804;7.126;2023-02-08T15:41:41;7.10;98.80
33955;DHT22;20233;50.804;7.126;2023-02-08T15:44:16;7.20;99.30
33955;DHT22;20233;50.804;7.126;2023-02-08T15:46:44;7.30;99.70
33955;DHT22;20233;50.804;7.126;2023-02-08T15:49:15;7.20;99.20
33955;DHT22;20233;50.804;7.126;2023-02-08T15:51:46;7.20;99.70
33955;DHT22;20233;50.804;7.126;2023-02-08T15:54:17;7.10;98.80
33955;DHT22;20233;50.804;7.126;2023-02-08T15:56:54;7.10;99.50
33955;DHT22;20233;50.804;7.126;2023-02-08T15:59:28;7.10;99.90
33955;DHT22;20233;50.804;7.126;2023-02-08T16:01:56;7.00;99.90
33955;DHT22;20233;50.804;7.126;2023-02-08T16:04:24;6.90;99.90
33955;DHT22;20233;50.804;7.126;2023-02-08T16:06:55;6.90;99.90
33955;DHT22;20233;50.804;7.126;2023-02-08T16:09:26;6.80;99.90
33955;DHT22;20233;50.804;7.126;2023-02-08T16:11:59;6.80;99.90
33955;DHT22;20233;50.804;7.126;2023-02-08T16:14:27;6.80;99.90
33955;DHT22;20233;50.804;7.126;2023-02-08T16:16:55;6.90;99.90
33955;DHT22;20233;50.804;7.126;2023-02-08T16:19:30;6.80;99.90
33955;DHT22;20233;50.804;7.126;2023-02-08T16:22:27;6.70;99.90
33955;DHT22;20233;50.804;7.126;2023-02-08T16:25:24;6.60;99.90
33955;DHT22;20233;50.804;7.126;2023-02-08T16:27:57;6.50;99.90
33955;DHT22;20233;50.804;7.126;2023-02-08T16:30:23;6.50;99.90
33955;DHT22;20233;50.804;7.126;2023-02-08T16:32:49;6.40;99.90
33955;DHT22;20233;50.804;7.126;2023-02-08T16:35:23;6.30;99.90
33955;DHT22;20233;50.804;7.126;2023-02-08T16:37:56;6.30;99.90
33955;DHT22;20233;50.804;7.126;2023-02-08T16:40:50;6.20;99.90
33955;DHT22;20233;50.804;7.126;2023-02-08T16:43:26;6.10;99.90
33955;DHT22;20233;50.804;7.126;2023-02-08T16:46:16;6.00;99.90
33955;DHT22;20233;50.804;7.126;2023-02-08T16:48:56;6.00;99.90
33955;DHT22;20233;50.804;7.126;2023-02-08T16:51:30;5.90;99.90
33955;DHT22;20233;50.804;7.126;2023-02-08T16:54:04;5.80;99.90
33955;DHT22;20233;50.804;7.126;2023-02-08T16:56:36;5.70;99.90
33955;DHT22;20233;50.804;7.126;2023-02-08T16:59:03;5.70;99.90
33955;DHT22;20233;50.804;7.126;2023-02-08T17:01:29;5.70;99.90
33955;DHT22;20233;50.804;7.126;2023-02-08T17:03:55;5.70;99.90
33955;DHT22;20233;50.804;7.126;2023-02-08T17:06:34;5.60;99.90
33955;DHT22;20233;50.804;7.126;2023-02-08T17:09:02;5.60;99.90
33955;DHT22;20233;50.804;7.126;2023-02-08T17:11:30;5.50;99.90
33955;DHT22;20233;50.804;7.126;2023-02-08T17:13:57;5.50;99.90
33955;DHT22;20233;50.804;7.126;2023-02-08T17:16:26;5.50;99.90
33955;DHT22;20233;50.804;7.126;2023-02-08T17:18:54;5.40;99.90
33955;DHT22;20233;50.804;7.126;2023-02-08T17:21:21;5.40;99.90
33955;DHT22;20233;50.804;7.126;2023-02-08T17:23:48;5.30;99.90
33955;DHT22;20233;50.804;7.126;2023-02-08T17:26:21;5.20;99.90
33955;DHT22;20233;50.804;7.126;2023-02-08T17:28:50;5.20;99.90
33955;DHT22;20233;50.804;7.126;2023-02-08T17:31:16;5.10;99.90
33955;DHT22;20233;50.804;7.126;2023-02-08T17:33:43;5.10;99.90
33955;DHT22;20233;50.804;7.126;2023-02-08T17:36:12;5.00;99.90
33955;DHT22;20233;50.804;7.126;2023-02-08T17:38:39;4.90;99.90
33955;DHT22;20233;50.804;7.126;2023-02-08T17:41:06;4.90;99.90
33955;DHT22;20233;50.804;7.126;2023-02-08T17:43:34;4.70;99.90
33955;DHT22;20233;50.804;7.126;2023-02-08T17:46:10;4.70;99.90
33955;DHT22;20233;50.804;7.126;2023-02-08T17:48:37;4.70;99.90
33955;DHT22;20233;50.804;7.126;2023-02-08T17:51:17;4.50;99.90
33955;DHT22;20233;50.804;7.126;2023-02-08T17:53:44;4.60;99.90
33955;DHT22;20233;50.804;7.126;2023-02-08T17:56:12;4.50;99.90
33955;DHT22;20233;50.804;7.126;2023-02-08T17:58:39;4.50;99.90
33955;DHT22;20233;50.804;7.126;2023-02-08T18:01:06;4.50;99.90
33955;DHT22;20233;50.804;7.126;2023-02-08T18:03:33;4.40;99.90
33955;DHT22;20233;50.804;7.126;2023-02-08T18:05:59;4.40;99.90
33955;DHT22;20233;50.804;7.126;2023-02-08T18:08:26;4.40;99.90
33955;DHT22;20233;50.804;7.126;2023-02-08T18:10:53;4.30;99.90
33955;DHT22;20233;50.804;7.126;2023-02-08T18:13:19;4.30;99.90
33955;DHT22;20233;50.804;7.126;2023-02-08T18:15:45;4.30;99.90